Time;durP1;ratioP1;P1;durP2;ratioP2;P2;SDS_P1;SDS_P2;PMS_P1;PMS_P2;Temp;Humidity;BMP_temperature;BMP_pressure;BME280_temperature;BME280_humidity;BME280_pressure;Samples;Min_cycle;Max_cycle;Signal;HPM_P1;HPM_P2
2022/04/28 00:01:52;;;;;;;6.80;3.15;;;17.00;76.50;;;;;;5135300;27;20043;-69
2022/04/28 00:04:18;;;;;;;6.68;2.53;;;;;;;;;;5117897;27;20098;-62
2022/04/28 00:06:44;;;;;;;7.13;2.58;;;17.20;76.60;;;;;;5117124;27;20043;-63
2022/04/28 00:09:10;;;;;;;5.70;2.55;;;17.00;76.50;;;;;;5083306;27;20062;-63
2022/04/28 00:11:36;;;;;;;5.65;2.22;;;;;;;;;;5135140;27;20046;-62
2022/04/28 00:14:02;;;;;;;5.30;2.50;;;;;;;;;;5116634;27;20054;-67
2022/04/28 00:16:29;;;;;;;6.43;2.50;;;;;;;;;;5116600;27;20053;-65
2022/04/28 00:18:55;;;;;;;7.03;2.33;;;17.20;76.70;;;;;;5116568;27;20042;-62
2022/04/28 00:21:20;;;;;;;7.78;2.85;;;17.00;76.60;;;;;;5137381;27;20516;-66
2022/04/28 00:23:46;;;;;;;6.95;3.03;;;16.70;76.40;;;;;;5155825;27;20188;-64
2022/04/28 00:26:12;;;;;;;5.60;2.45;;;17.00;76.60;;;;;;5134145;27;20039;-64
2022/04/28 00:28:39;;;;;;;6.57;2.47;;;;;;;;;;5130679;27;20507;-63
2022/04/28 00:31:05;;;;;;;7.30;2.45;;;17.00;76.50;;;;;;5135059;27;20039;-63
2022/04/28 00:33:30;;;;;;;5.03;2.40;;;17.10;76.60;;;;;;5134976;27;20103;-64
2022/04/28 00:35:57;;;;;;;7.88;2.78;;;17.00;76.50;;;;;;5116059;27;20039;-62
2022/04/28 00:38:22;;;;;;;7.35;2.22;;;17.20;76.60;;;;;;5134242;27;20066;-63
2022/04/28 00:40:49;;;;;;;7.10;2.50;;;;;;;;;;5115941;27;20070;-62
2022/04/28 00:43:20;;;;;;;8.13;2.70;;;17.00;76.50;;;;;;5130734;27;20046;-62
2022/04/28 00:45:48;;;;;;;;;;;17.10;73.90;;;;;;5079574;28;20059;-63
2022/04/28 00:51:00;;;;;;;7.32;2.42;;;;;;;;;;5126609;27;20075;-63
2022/04/28 00:53:27;;;;;;;6.35;2.30;;;17.00;76.50;;;;;;5116389;27;20047;-66
2022/04/28 00:55:53;;;;;;;7.70;2.20;;;;;;;;;;5090244;28;20124;-63
2022/04/28 00:58:19;;;;;;;6.70;2.40;;;;;;;;;;5093979;28;21899;-65
2022/04/28 01:00:45;;;;;;;5.05;2.10;;;17.20;76.70;;;;;;5097201;28;20097;-62
2022/04/28 01:03:11;;;;;;;4.93;2.30;;;17.10;76.50;;;;;;5095694;28;20036;-67
2022/04/28 01:05:37;;;;;;;8.80;2.30;;;;;;;;;;5078532;28;20078;-62
2022/04/28 01:08:04;;;;;;;6.75;2.60;;;17.20;76.60;;;;;;5088450;28;20079;-65
2022/04/28 01:10:30;;;;;;;5.13;2.22;;;;;;;;;;5101650;27;20040;-63
2022/04/28 01:12:56;;;;;;;6.93;2.75;;;;;;;;;;5113159;27;20440;-63
2022/04/28 01:15:22;;;;;;;4.32;2.00;;;17.00;76.50;;;;;;5098724;27;20373;-62
2022/04/28 01:17:48;;;;;;;5.00;2.38;;;17.10;74.80;;;;;;5123171;27;20047;-64
2022/04/28 01:20:14;;;;;;;4.95;2.40;;;16.90;76.60;;;;;;5113093;28;20128;-63
2022/04/28 01:22:41;;;;;;;6.30;2.17;;;;;;;;;;5097189;28;20044;-63
2022/04/28 01:25:08;;;;;;;6.75;2.30;;;17.20;76.80;;;;;;5113175;28;20489;-63
2022/04/28 01:27:35;;;;;;;6.20;2.45;;;17.10;76.70;;;;;;5094872;28;20047;-63
2022/04/28 01:30:01;;;;;;;7.93;2.78;;;17.00;73.00;;;;;;5095285;28;20403;-62
2022/04/28 01:32:27;;;;;;;7.15;2.80;;;17.30;76.90;;;;;;5106509;27;20038;-62
2022/04/28 01:34:53;;;;;;;7.15;2.50;;;17.20;76.80;;;;;;5104319;28;20047;-63
2022/04/28 01:37:18;;;;;;;6.05;2.40;;;17.00;76.80;;;;;;5113121;28;20063;-62
2022/04/28 01:39:44;;;;;;;6.45;2.40;;;17.10;76.80;;;;;;5111655;28;20051;-64
2022/04/28 01:42:11;;;;;;;6.65;2.40;;;;;;;;;;5113758;28;20050;-63
2022/04/28 01:44:36;;;;;;;6.28;2.63;;;17.10;76.50;;;;;;5102888;27;20104;-63
2022/04/28 01:47:02;;;;;;;6.90;2.35;;;17.00;76.70;;;;;;5114534;28;20046;-63
2022/04/28 01:49:29;;;;;;;4.57;2.13;;;17.10;76.80;;;;;;5133638;27;20430;-62
2022/04/28 01:54:57;;;;;;;7.85;2.55;;;17.20;75.40;;;;;;5105117;28;20132;-62
2022/04/28 01:57:24;;;;;;;6.97;2.40;;;17.00;76.70;;;;;;5097699;28;20050;-63
2022/04/28 01:59:51;;;;;;;5.60;2.17;;;17.20;76.90;;;;;;5112751;28;20126;-62
2022/04/28 02:02:17;;;;;;;5.47;2.30;;;17.00;76.80;;;;;;5078236;28;20083;-65
2022/04/28 02:04:43;;;;;;;4.22;2.35;;;17.30;76.80;;;;;;5098725;28;20063;-63
2022/04/28 02:07:11;;;;;;;6.95;2.40;;;17.30;77.00;;;;;;5112721;28;20506;-65
2022/04/28 02:09:36;;;;;;;4.78;2.10;;;17.00;76.80;;;;;;5078237;28;20524;-63
2022/04/28 02:12:03;;;;;;;6.32;2.33;;;17.30;76.10;;;;;;5094763;28;20063;-63
2022/04/28 02:14:29;;;;;;;5.25;2.10;;;17.10;76.90;;;;;;5095908;27;20043;-63
2022/04/28 02:16:55;;;;;;;6.50;2.40;;;;;;;;;;5132743;28;20143;-62
2022/04/28 02:19:22;;;;;;;5.57;2.60;;;17.30;76.90;;;;;;5094464;28;20447;-63
2022/04/28 02:21:48;;;;;;;6.85;2.50;;;17.10;76.80;;;;;;5112370;28;20036;-69
2022/04/28 02:24:14;;;;;;;5.97;2.13;;;17.10;76.80;;;;;;5094337;28;20083;-63
2022/04/28 02:26:40;;;;;;;5.82;2.28;;;17.00;76.90;;;;;;5125941;27;20081;-62
2022/04/28 02:29:06;;;;;;;8.45;2.30;;;17.10;76.90;;;;;;5114980;28;20043;-63
2022/04/28 02:31:32;;;;;;;7.60;2.63;;;17.30;77.10;;;;;;5115029;28;20063;-63
2022/04/28 02:33:58;;;;;;;4.95;2.38;;;;;;;;;;5097606;28;20441;-62
2022/04/28 02:36:27;;;;;;;5.45;2.30;;;17.10;76.90;;;;;;5118769;27;20048;-62
2022/04/28 02:38:53;;;;;;;7.50;2.60;;;;;;;;;;5132749;28;20058;-63
2022/04/28 02:41:21;;;;;;;6.68;2.55;;;17.20;77.10;;;;;;5133041;28;20070;-62
2022/04/28 02:43:51;;;;;;;5.75;2.40;;;17.20;74.00;;;;;;5096028;28;20063;-63
2022/04/28 02:46:17;;;;;;;6.57;2.45;;;16.90;76.90;;;;;;5058997;28;20043;-63
2022/04/28 02:48:43;;;;;;;6.20;2.42;;;;;;;;;;5077788;28;20074;-62
2022/04/28 02:51:09;;;;;;;5.75;2.80;;;17.10;77.00;;;;;;5097928;28;20369;-63
2022/04/28 02:53:35;;;;;;;5.75;2.50;;;17.10;77.00;;;;;;5114443;28;20054;-62
2022/04/28 02:56:01;;;;;;;7.43;2.65;;;17.20;77.00;;;;;;5130695;28;20039;-62
2022/04/28 02:58:27;;;;;;;8.55;2.80;;;17.20;77.10;;;;;;5072391;27;20090;-62
2022/04/28 03:00:53;;;;;;;5.35;2.50;;;;;;;;;;5052168;28;20055;-62
2022/04/28 03:03:20;;;;;;;6.00;2.38;;;;;;;;;;5097704;28;20047;-65
2022/04/28 03:11:16;;;;;;;8.07;3.08;;;17.00;77.10;;;;;;5097671;28;20055;-62
2022/04/28 03:13:42;;;;;;;6.28;2.45;;;17.20;77.20;;;;;;5080678;28;20043;-63
2022/04/28 03:16:08;;;;;;;8.25;2.83;;;17.10;77.10;;;;;;5099200;27;20047;-62
2022/04/28 03:18:34;;;;;;;6.05;2.60;;;;;;;;;;5105317;27;20093;-63
2022/04/28 03:21:00;;;;;;;5.82;2.25;;;17.10;77.10;;;;;;5097621;28;20054;-63
2022/04/28 03:23:26;;;;;;;7.93;2.70;;;16.90;76.80;;;;;;5115168;28;20033;-63
2022/04/28 03:25:52;;;;;;;7.38;2.38;;;17.20;77.20;;;;;;5097360;28;20101;-63
2022/04/28 03:28:21;;;;;;;5.05;2.40;;;17.20;77.20;;;;;;5117246;27;20035;-62
2022/04/28 03:30:48;;;;;;;3.97;2.40;;;16.90;75.90;;;;;;5115505;27;20035;-63
2022/04/28 03:33:14;;;;;;;5.18;2.63;;;16.80;76.40;;;;;;5125714;27;20039;-62
2022/04/28 03:35:40;;;;;;;6.55;2.90;;;17.00;77.10;;;;;;5135908;27;20035;-63
2022/04/28 03:38:09;;;;;;;6.93;2.80;;;17.00;77.10;;;;;;5135590;27;20050;-67
2022/04/28 03:40:35;;;;;;;4.65;2.33;;;16.70;76.90;;;;;;5105836;27;20061;-62
2022/04/28 03:43:01;;;;;;;6.57;2.30;;;17.20;77.30;;;;;;5136067;27;20110;-62
2022/04/28 03:45:27;;;;;;;7.13;2.70;;;17.10;77.40;;;;;;5117653;27;20043;-68
2022/04/28 03:47:53;;;;;;;6.10;2.53;;;17.20;77.40;;;;;;5135947;27;20043;-63
2022/04/28 03:50:19;;;;;;;8.27;2.80;;;;;;;;;;5107803;28;20111;-67
2022/04/28 03:52:46;;;;;;;7.88;2.80;;;;;;;;;;5114818;27;20051;-66
2022/04/28 03:55:12;;;;;;;6.72;2.58;;;17.00;77.30;;;;;;5096660;28;20122;-63
2022/04/28 03:57:38;;;;;;;5.10;2.38;;;;;;;;;;5097048;28;20115;-63
2022/04/28 04:00:05;;;;;;;5.40;2.20;;;17.20;77.50;;;;;;5116090;27;20055;-64
2022/04/28 04:02:31;;;;;;;6.63;2.40;;;17.20;77.50;;;;;;5098919;27;20043;-62
2022/04/28 04:04:56;;;;;;;5.78;2.55;;;17.00;77.10;;;;;;5135301;27;20051;-62
2022/04/28 04:07:22;;;;;;;5.35;2.28;;;17.20;77.50;;;;;;5093144;28;20047;-62
2022/04/28 04:09:48;;;;;;;8.27;2.47;;;16.90;77.40;;;;;;5096391;27;20122;-62
2022/04/28 04:12:14;;;;;;;5.28;2.40;;;17.30;77.50;;;;;;5073268;27;20114;-62
2022/04/28 04:14:40;;;;;;;8.00;2.70;;;;;;;;;;5134950;27;20035;-63
2022/04/28 04:17:07;;;;;;;6.00;2.33;;;;;;;;;;5114420;28;20043;-62
2022/04/28 04:19:32;;;;;;;6.05;2.50;;;17.00;77.40;;;;;;5113336;28;20505;-62
2022/04/28 04:21:58;;;;;;;6.82;2.65;;;17.00;77.40;;;;;;5083231;28;20062;-63
2022/04/28 04:24:25;;;;;;;5.13;2.40;;;17.00;77.40;;;;;;5110671;27;20039;-63
2022/04/28 04:26:51;;;;;;;6.60;2.85;;;17.00;77.50;;;;;;5079261;28;20568;-63
2022/04/28 04:29:17;;;;;;;6.25;2.83;;;;;;;;;;5079122;28;20166;-62
2022/04/28 04:34:28;;;;;;;7.10;2.72;;;16.80;77.50;;;;;;5119581;27;20035;-62
2022/04/28 04:36:54;;;;;;;6.20;2.28;;;17.10;77.60;;;;;;5112976;27;20031;-63
2022/04/28 04:39:20;;;;;;;6.22;2.40;;;16.80;77.60;;;;;;5114302;28;20048;-63
2022/04/28 04:41:45;;;;;;;6.30;2.80;;;17.00;77.70;;;;;;5124211;27;20115;-63
2022/04/28 04:44:13;;;;;;;7.22;2.85;;;17.00;77.80;;;;;;5132564;27;20039;-63
2022/04/28 04:46:40;;;;;;;6.85;2.10;;;16.80;77.70;;;;;;5126331;27;20040;-64
2022/04/28 04:49:06;;;;;;;5.50;2.22;;;16.90;77.90;;;;;;5095660;28;20043;-63
2022/04/28 04:51:32;;;;;;;5.63;2.53;;;16.90;77.90;;;;;;5095722;28;20062;-63
2022/04/28 04:53:58;;;;;;;6.10;2.40;;;17.00;76.50;;;;;;5113871;28;20389;-63
2022/04/28 04:56:23;;;;;;;5.72;2.28;;;16.90;77.90;;;;;;5113184;27;20469;-63
2022/04/28 04:58:50;;;;;;;6.55;2.35;;;17.30;78.10;;;;;;5107538;27;20050;-63
2022/04/28 05:01:15;;;;;;;7.53;2.60;;;17.00;78.00;;;;;;5133968;27;20043;-67
2022/04/28 05:03:41;;;;;;;10.00;3.00;;;17.10;78.10;;;;;;5115889;27;20128;-65
2022/04/28 05:06:07;;;;;;;6.47;2.20;;;17.00;78.10;;;;;;5115969;27;20043;-66
2022/04/28 05:08:33;;;;;;;7.13;2.40;;;17.00;78.10;;;;;;5121385;27;20051;-65
2022/04/28 05:10:59;;;;;;;5.93;2.53;;;17.30;78.30;;;;;;5099159;27;20115;-65
2022/04/28 05:13:25;;;;;;;8.48;2.85;;;17.00;75.70;;;;;;5116058;27;20043;-65
2022/04/28 05:15:51;;;;;;;6.88;2.25;;;17.10;78.10;;;;;;5104043;28;20071;-65
2022/04/28 05:18:17;;;;;;;6.88;2.22;;;;;;;;;;5098115;27;20039;-65
2022/04/28 05:20:43;;;;;;;4.88;2.20;;;17.30;78.10;;;;;;5093583;28;20538;-64
2022/04/28 05:23:09;;;;;;;9.23;2.60;;;;;;;;;;5096106;27;20500;-63
2022/04/28 05:25:36;;;;;;;7.65;2.65;;;17.30;77.70;;;;;;5112712;27;20047;-67
2022/04/28 05:28:02;;;;;;;8.18;2.80;;;;;;;;;;5074799;28;20524;-65
2022/04/28 05:30:29;;;;;;;8.07;3.33;;;;;;;;;;5091140;27;20062;-62
2022/04/28 05:32:55;;;;;;;5.90;2.17;;;17.40;77.70;;;;;;5124112;27;20040;-64
2022/04/28 05:35:21;;;;;;;6.93;2.67;;;17.70;77.50;;;;;;5109413;28;20054;-64
2022/04/28 05:37:47;;;;;;;5.68;2.55;;;17.70;77.60;;;;;;5094580;28;20055;-64
2022/04/28 05:40:15;;;;;;;6.95;2.58;;;17.70;77.40;;;;;;5097067;28;20454;-63
2022/04/28 05:48:11;;;;;;;5.82;2.20;;;18.30;74.90;;;;;;5089181;28;20036;-64
2022/04/28 05:50:37;;;;;;;5.72;2.00;;;18.40;76.90;;;;;;5111051;28;20050;-67
2022/04/28 05:53:04;;;;;;;5.70;1.95;;;;;;;;;;5090504;28;20052;-65
2022/04/28 05:55:30;;;;;;;6.10;2.55;;;;;;;;;;5125260;27;20039;-65
2022/04/28 05:57:59;;;;;;;9.80;2.45;;;18.80;75.60;;;;;;5128822;28;20035;-64
2022/04/28 06:00:25;;;;;;;4.93;1.75;;;19.00;76.40;;;;;;5118970;28;20039;-68
2022/04/28 06:02:52;;;;;;;6.63;2.33;;;;;;;;;;5095944;28;20039;-64
2022/04/28 06:05:18;;;;;;;5.70;2.20;;;;;;;;;;5085097;28;20496;-63
2022/04/28 06:07:44;;;;;;;5.68;2.10;;;;;;;;;;5091697;28;20069;-65
2022/04/28 06:10:10;;;;;;;4.13;1.70;;;;;;;;;;5111952;28;20044;-64
2022/04/28 06:12:36;;;;;;;5.65;2.10;;;19.70;74.40;;;;;;5112275;28;20043;-68
2022/04/28 06:15:02;;;;;;;3.25;1.58;;;19.60;72.50;;;;;;5091995;28;20058;-65
2022/04/28 06:17:28;;;;;;;6.03;2.20;;;19.50;71.70;;;;;;5108895;28;20104;-63
2022/04/28 06:19:54;;;;;;;6.28;2.17;;;;;;;;;;5088359;28;20567;-67
2022/04/28 06:22:20;;;;;;;5.93;1.88;;;;;;;;;;5109689;28;20818;-66
2022/04/28 06:24:53;;;;;;;6.07;2.00;;;20.00;74.80;;;;;;5090896;28;20044;-67
2022/04/28 06:27:19;;;;;;;7.25;2.10;;;19.90;71.10;;;;;;5088499;28;20091;-63
2022/04/28 06:29:45;;;;;;;4.95;1.85;;;;;;;;;;5108182;28;20049;-64
2022/04/28 06:32:12;;;;;;;5.35;1.80;;;;;;;;;;5112518;28;20066;-65
2022/04/28 06:34:38;;;;;;;6.05;1.70;;;;;;;;;;5080619;27;20039;-66
2022/04/28 06:37:05;;;;;;;5.70;1.58;;;19.80;74.70;;;;;;5093963;28;20119;-66
2022/04/28 06:39:31;;;;;;;6.32;1.83;;;;;;;;;;5095399;28;20411;-65
2022/04/28 06:41:57;;;;;;;8.63;2.17;;;;;;;;;;5112161;28;20444;-66
2022/04/28 06:44:23;;;;;;;4.70;1.70;;;19.80;74.80;;;;;;5097836;28;20048;-65
2022/04/28 06:46:49;;;;;;;6.25;2.08;;;;;;;;;;5090287;28;20630;-67
2022/04/28 06:49:15;;;;;;;5.53;1.60;;;;;;;;;;5110223;27;20476;-68
2022/04/28 06:51:43;;;;;;;4.68;1.80;;;19.80;71.70;;;;;;5109208;28;20074;-65
2022/04/28 06:54:10;;;;;;;5.95;1.98;;;;;;;;;;5097344;28;20044;-67
2022/04/28 06:56:36;;;;;;;3.97;1.52;;;;;;;;;;5096737;28;20044;-68
2022/04/28 06:59:03;;;;;;;5.10;1.70;;;19.40;74.70;;;;;;5101883;27;20074;-67
2022/04/28 07:01:29;;;;;;;6.35;2.10;;;19.30;74.70;;;;;;5111908;28;20090;-67
2022/04/28 07:03:55;;;;;;;6.50;1.98;;;19.50;74.50;;;;;;5094382;28;20075;-69
2022/04/28 07:06:21;;;;;;;5.38;1.70;;;;;;;;;;5098430;28;20453;-67
2022/04/28 07:08:47;;;;;;;5.22;1.58;;;;;;;;;;5094212;28;20055;-68
2022/04/28 07:11:13;;;;;;;6.72;1.85;;;;;;;;;;5094295;27;20135;-70
2022/04/28 07:13:39;;;;;;;5.50;1.85;;;;;;;;;;5093192;28;20042;-66
2022/04/28 07:16:05;;;;;;;4.13;1.75;;;19.50;75.00;;;;;;5097147;28;20114;-67
2022/04/28 07:18:31;;;;;;;4.75;1.65;;;19.60;75.10;;;;;;5093747;28;20139;-67
2022/04/28 07:20:58;;;;;;;4.70;1.52;;;;;;;;;;5090349;28;20636;-65
2022/04/28 07:23:24;;;;;;;5.15;1.83;;;19.80;74.80;;;;;;5091312;28;20512;-65
2022/04/28 07:25:49;;;;;;;5.88;1.90;;;20.00;74.80;;;;;;5099267;28;20032;-70
2022/04/28 07:28:15;;;;;;;4.70;1.50;;;;;;;;;;5094735;28;20824;-68
2022/04/28 07:30:42;;;;;;;5.85;1.60;;;;;;;;;;5095123;28;20040;-69
2022/04/28 07:33:08;;;;;;;6.05;1.70;;;;;;;;;;5094129;27;20071;-67
2022/04/28 07:35:34;;;;;;;4.40;1.65;;;;;;;;;;5094462;28;20472;-67
2022/04/28 07:38:00;;;;;;;6.35;2.13;;;20.40;74.20;;;;;;5107863;27;20043;-69
2022/04/28 07:40:27;;;;;;;7.25;1.88;;;;;;;;;;5094428;28;20195;-68
2022/04/28 07:42:53;;;;;;;6.43;1.92;;;20.40;74.10;;;;;;5077341;28;20039;-68
2022/04/28 07:45:19;;;;;;;7.10;1.90;;;20.80;70.60;;;;;;5111042;27;20088;-69
2022/04/28 07:47:46;;;;;;;4.75;1.63;;;20.60;74.10;;;;;;5098613;27;20051;-68
2022/04/28 07:50:12;;;;;;;5.18;1.92;;;20.70;73.10;;;;;;5101417;28;20403;-65
2022/04/28 07:52:38;;;;;;;6.70;2.00;;;20.70;70.60;;;;;;5112245;27;20099;-65
2022/04/28 07:55:05;;;;;;;4.55;1.98;;;20.50;71.50;;;;;;5092282;27;20445;-65
2022/04/28 07:57:31;;;;;;;5.18;1.55;;;20.60;73.90;;;;;;5112211;28;20073;-65
2022/04/28 07:59:58;;;;;;;5.53;1.50;;;;;;;;;;5092563;27;20057;-70
2022/04/28 08:02:24;;;;;;;4.20;1.60;;;;;;;;;;5096811;27;20035;-68
2022/04/28 08:04:50;;;;;;;5.93;1.73;;;20.90;73.90;;;;;;5116276;27;20040;-66
2022/04/28 08:07:16;;;;;;;6.07;2.42;;;;;;;;;;5096745;28;20058;-67
2022/04/28 08:09:42;;;;;;;5.90;1.80;;;20.90;72.00;;;;;;5111230;27;20109;-70
2022/04/28 08:12:08;;;;;;;7.75;2.00;;;21.10;73.80;;;;;;5112209;27;20057;-69
2022/04/28 08:14:33;;;;;;;13.43;2.25;;;20.80;73.60;;;;;;5079748;27;20132;-71
2022/04/28 08:17:00;;;;;;;6.82;2.20;;;;;;;;;;5095500;28;20532;-64
2022/04/28 08:19:25;;;;;;;5.18;1.77;;;20.90;73.80;;;;;;5097221;27;20051;-69
2022/04/28 08:21:51;;;;;;;5.20;1.80;;;20.80;73.70;;;;;;5123536;27;20088;-68
2022/04/28 08:24:17;;;;;;;5.32;1.80;;;20.90;73.90;;;;;;5077339;28;20043;-68
2022/04/28 08:26:43;;;;;;;6.32;1.90;;;20.80;73.70;;;;;;5094556;27;20062;-69
2022/04/28 08:29:09;;;;;;;7.38;2.05;;;;;;;;;;5117986;27;20036;-68
2022/04/28 08:31:43;;;;;;;5.63;1.83;;;;;;;;;;5116595;27;20044;-70
2022/04/28 08:34:09;;;;;;;7.22;2.08;;;;;;;;;;5099110;27;20038;-66
2022/04/28 08:36:35;;;;;;;7.53;2.20;;;;;;;;;;5098598;28;20529;-67
2022/04/28 08:39:02;;;;;;;7.03;1.85;;;;;;;;;;5118580;27;20068;-67
2022/04/28 08:41:33;;;;;;;6.10;1.70;;;20.80;71.10;;;;;;5103703;27;20040;-68
2022/04/28 08:43:59;;;;;;;4.57;1.77;;;20.50;71.90;;;;;;5101108;27;20035;-65
2022/04/28 08:49:12;;;;;;;6.65;2.33;;;20.70;74.00;;;;;;5093698;27;20043;-70
2022/04/28 08:51:38;;;;;;;7.55;2.10;;;20.70;70.30;;;;;;5117290;27;20504;-71
2022/04/28 08:54:04;;;;;;;6.63;2.22;;;20.80;73.70;;;;;;5084771;27;20388;-70
2022/04/28 08:56:30;;;;;;;5.65;1.92;;;20.50;70.50;;;;;;5086258;27;20047;-68
2022/04/28 08:58:56;;;;;;;7.30;2.03;;;;;;;;;;5120372;27;20043;-70
2022/04/28 09:01:25;;;;;;;7.70;2.20;;;20.60;74.20;;;;;;5118544;27;20043;-71
2022/04/28 09:03:52;;;;;;;8.45;2.13;;;;;;;;;;5119215;27;20118;-66
2022/04/28 09:06:23;;;;;;;6.75;2.35;;;20.40;74.30;;;;;;5100549;27;20046;-70
2022/04/28 09:08:49;;;;;;;6.20;1.92;;;20.50;74.30;;;;;;5086704;27;20050;-71
2022/04/28 09:11:22;;;;;;;8.00;2.10;;;20.60;74.50;;;;;;5102159;27;20031;-69
2022/04/28 09:14:09;;;;;;;5.40;2.20;;;20.50;74.40;;;;;;5105041;27;20051;-69
2022/04/28 09:16:36;;;;;;;8.90;2.05;;;20.70;74.30;;;;;;5129037;27;20387;-68
2022/04/28 09:19:02;;;;;;;11.50;2.60;;;20.50;74.10;;;;;;5090929;28;20047;-66
2022/04/28 09:21:29;;;;;;;10.57;3.40;;;20.50;74.20;;;;;;5116797;27;20140;-69
2022/04/28 09:23:54;;;;;;;8.80;2.90;;;20.50;74.20;;;;;;5099577;27;20047;-68
2022/04/28 09:26:24;;;;;;;10.65;2.58;;;20.30;74.00;;;;;;5074220;28;20497;-68
2022/04/28 09:28:51;;;;;;;11.50;2.60;;;20.30;74.10;;;;;;5078344;28;20047;-69
2022/04/28 09:31:17;;;;;;;11.00;2.40;;;20.50;71.40;;;;;;5115839;27;20043;-66
2022/04/28 09:33:46;;;;;;;11.00;2.80;;;20.50;74.20;;;;;;5109794;27;20043;-67
2022/04/28 09:36:12;;;;;;;7.80;2.55;;;20.10;74.00;;;;;;5078948;28;20542;-68
2022/04/28 09:38:38;;;;;;;7.05;2.72;;;20.10;73.90;;;;;;5094667;27;20134;-69
2022/04/28 09:43:55;;;;;;;11.40;3.15;;;20.10;74.00;;;;;;5117149;27;20051;-68
2022/04/28 09:46:25;;;;;;;7.40;2.60;;;20.40;74.20;;;;;;5062915;28;20374;-68
2022/04/28 09:48:51;;;;;;;8.85;2.45;;;20.40;74.20;;;;;;5098322;28;20047;-68
2022/04/28 09:51:23;;;;;;;11.13;3.83;;;20.40;71.30;;;;;;5115101;27;20104;-68
2022/04/28 09:53:50;;;;;;;9.98;2.50;;;20.20;74.00;;;;;;5116363;27;20035;-68
2022/04/28 09:56:18;;;;;;;9.80;3.00;;;20.30;74.10;;;;;;5079165;27;20125;-68
2022/04/28 09:58:44;;;;;;;11.00;2.58;;;20.50;74.30;;;;;;5079582;27;20035;-68
2022/04/28 10:01:10;;;;;;;8.15;3.10;;;;;;;;;;5095146;28;20043;-68
2022/04/28 10:03:40;;;;;;;6.05;2.53;;;20.40;74.20;;;;;;5096397;28;20048;-68
2022/04/28 10:06:06;;;;;;;6.80;2.20;;;20.30;74.30;;;;;;5098876;28;20404;-68
2022/04/28 10:08:35;;;;;;;8.30;2.28;;;20.30;74.30;;;;;;5114874;27;20031;-68
2022/04/28 10:11:04;;;;;;;10.20;2.55;;;20.30;74.50;;;;;;5114345;27;20048;-68
2022/04/28 10:13:30;;;;;;;7.55;2.40;;;20.30;74.40;;;;;;5068767;27;20449;-69
2022/04/28 10:16:07;;;;;;;7.13;2.38;;;20.30;74.60;;;;;;5103148;27;20042;-69
2022/04/28 10:18:41;;;;;;;7.68;2.28;;;20.40;70.10;;;;;;5067084;28;20059;-69
2022/04/28 10:21:10;;;;;;;5.80;2.20;;;20.40;74.60;;;;;;5112900;27;20047;-64
2022/04/28 10:35:02;;;;;;;6.43;2.10;;;20.10;74.20;;;;;;5117321;27;20043;-69
2022/04/28 10:37:32;;;;;;;12.55;2.47;;;20.40;70.10;;;;;;5117228;28;20054;-65
2022/04/28 10:39:58;;;;;;;9.27;2.78;;;20.30;74.10;;;;;;5098387;27;20062;-68
2022/04/28 10:42:27;;;;;;;8.18;2.75;;;20.30;74.10;;;;;;5105423;27;20046;-69
2022/04/28 10:44:54;;;;;;;10.73;3.13;;;20.30;74.10;;;;;;5117582;28;20054;-67
2022/04/28 10:47:41;;;;;;;7.80;2.47;;;19.90;73.90;;;;;;5117565;28;20097;-67
2022/04/28 10:50:25;;;;;;;8.60;2.58;;;20.30;74.30;;;;;;5118992;27;20046;-66
2022/04/28 10:53:05;;;;;;;12.52;2.65;;;19.80;74.00;;;;;;5107233;27;20419;-69
2022/04/28 10:55:34;;;;;;;8.77;2.40;;;20.10;74.20;;;;;;5134321;27;20042;-71
2022/04/28 10:58:22;;;;;;;10.48;2.80;;;20.20;74.30;;;;;;5102634;27;20479;-71
2022/04/28 11:00:54;;;;;;;8.70;2.42;;;20.30;74.20;;;;;;5137961;27;20381;-70
2022/04/28 11:03:42;;;;;;;10.60;2.42;;;20.00;74.10;;;;;;5124862;27;20508;-63
2022/04/28 11:06:10;;;;;;;9.15;2.35;;;20.40;74.50;;;;;;5110170;27;20039;-62
2022/04/28 11:08:37;;;;;;;9.55;2.42;;;20.20;74.20;;;;;;5135409;27;20043;-63
2022/04/28 11:11:07;;;;;;;11.43;2.80;;;20.30;74.20;;;;;;5119441;27;20407;-62
2022/04/28 11:13:32;;;;;;;8.82;2.63;;;20.30;74.70;;;;;;5122410;27;20052;-63
2022/04/28 11:15:59;;;;;;;7.68;2.50;;;20.30;74.30;;;;;;5079291;28;20054;-62
2022/04/28 11:18:25;;;;;;;11.02;2.95;;;20.50;74.50;;;;;;5097800;28;20048;-62
2022/04/28 11:21:00;;;;;;;11.57;2.65;;;20.20;74.30;;;;;;5097482;28;20051;-63
2022/04/28 11:23:37;;;;;;;8.68;3.15;;;20.40;74.30;;;;;;5083767;27;20040;-63
2022/04/28 11:26:03;;;;;;;11.90;2.85;;;;;;;;;;5100270;27;20100;-65
2022/04/28 11:28:31;;;;;;;9.15;2.60;;;20.40;74.40;;;;;;5120460;27;20097;-62
2022/04/28 11:30:58;;;;;;;9.68;2.78;;;20.30;71.80;;;;;;5084345;28;20130;-62
2022/04/28 11:33:23;;;;;;;8.10;2.30;;;20.40;72.50;;;;;;5081471;28;20514;-63
2022/04/28 11:35:49;;;;;;;7.75;2.40;;;20.50;74.40;;;;;;5066222;28;20048;-63
2022/04/28 11:38:24;;;;;;;12.52;2.60;;;20.10;74.00;;;;;;5109799;27;20051;-63
2022/04/28 11:41:00;;;;;;;9.98;2.83;;;20.40;74.30;;;;;;5109076;28;20058;-62
2022/04/28 11:43:34;;;;;;;9.75;2.50;;;20.10;74.10;;;;;;5088745;28;20039;-63
2022/04/28 11:46:00;;;;;;;8.82;2.75;;;20.50;74.40;;;;;;5109155;27;20040;-70
2022/04/28 11:48:29;;;;;;;10.77;2.60;;;20.50;74.30;;;;;;5081040;28;20052;-70
2022/04/28 11:51:03;;;;;;;10.45;2.25;;;20.80;75.00;;;;;;5115505;28;20051;-70
2022/04/28 11:53:42;;;;;;;8.57;2.55;;;20.60;74.60;;;;;;5070055;28;20052;-62
2022/04/28 11:56:22;;;;;;;8.90;2.10;;;20.50;72.20;;;;;;5099372;27;20054;-62
2022/04/28 11:58:51;;;;;;;7.35;2.60;;;20.40;71.40;;;;;;5080852;28;20048;-62
2022/04/28 12:01:19;;;;;;;13.40;2.80;;;20.60;74.40;;;;;;5097618;28;20090;-63
2022/04/28 12:03:54;;;;;;;9.95;2.70;;;20.40;69.70;;;;;;5078274;27;20050;-62
2022/04/28 12:06:20;;;;;;;16.38;2.55;;;20.20;74.40;;;;;;5114756;27;20043;-62
2022/04/28 12:08:56;;;;;;;14.05;2.70;;;20.40;74.60;;;;;;5109467;28;20039;-62
2022/04/28 12:14:27;;;;;;;9.73;2.67;;;20.40;74.70;;;;;;5100414;28;20111;-63
2022/04/28 12:20:00;;;;;;;11.80;2.42;;;20.40;74.60;;;;;;5035996;28;20144;-63
2022/04/28 12:22:39;;;;;;;8.70;2.13;;;20.60;74.70;;;;;;5003597;28;20469;-70
2022/04/28 12:25:09;;;;;;;8.10;2.30;;;20.70;72.50;;;;;;5035149;28;20056;-70
2022/04/28 12:27:43;;;;;;;11.95;2.78;;;20.60;72.20;;;;;;5018951;28;20071;-63
2022/04/28 12:30:10;;;;;;;7.75;2.30;;;20.50;74.80;;;;;;5035995;28;20111;-63
2022/04/28 12:32:45;;;;;;;11.95;2.65;;;20.60;71.70;;;;;;5020111;28;20041;-69
2022/04/28 12:35:25;;;;;;;11.63;2.55;;;20.60;74.80;;;;;;5052050;28;20171;-70
2022/04/28 12:38:02;;;;;;;5.93;2.35;;;20.50;74.80;;;;;;5035518;28;20063;-69
2022/04/28 12:40:41;;;;;;;8.15;2.28;;;20.60;75.00;;;;;;5052353;28;20514;-70
2022/04/28 12:43:07;;;;;;;8.43;2.88;;;20.50;70.90;;;;;;5053055;28;20102;-70
2022/04/28 12:45:56;;;;;;;7.78;2.72;;;20.50;74.80;;;;;;5019131;28;20059;-69
2022/04/28 12:48:35;;;;;;;7.72;2.60;;;20.40;70.30;;;;;;5024795;28;20065;-68
2022/04/28 12:51:08;;;;;;;8.75;1.95;;;20.40;72.60;;;;;;5052266;28;20049;-70
2022/04/28 12:53:34;;;;;;;9.20;2.20;;;20.50;75.10;;;;;;5067876;28;20048;-70
2022/04/28 12:56:08;;;;;;;9.60;2.97;;;20.70;75.60;;;;;;5093530;28;20116;-70
2022/04/28 12:58:57;;;;;;;13.45;2.40;;;20.50;75.20;;;;;;5105215;28;20050;-69
2022/04/28 13:01:23;;;;;;;12.57;2.38;;;20.40;75.40;;;;;;5099135;28;20079;-70
2022/04/28 13:03:56;;;;;;;9.40;2.45;;;20.30;75.20;;;;;;5093436;28;20082;-69
2022/04/28 13:06:26;;;;;;;8.43;2.28;;;20.40;75.50;;;;;;5093459;28;20054;-68
2022/04/28 13:08:53;;;;;;;12.07;2.22;;;20.20;75.30;;;;;;5093983;28;20055;-69
2022/04/28 13:11:24;;;;;;;6.57;2.03;;;20.50;73.50;;;;;;5095143;28;20035;-69
2022/04/28 13:13:50;;;;;;;8.82;2.63;;;20.60;75.70;;;;;;5093137;28;20044;-69
2022/04/28 13:16:17;;;;;;;7.35;2.13;;;20.50;75.80;;;;;;5091468;28;20432;-69
2022/04/28 13:18:44;;;;;;;6.97;2.17;;;20.60;75.80;;;;;;5093767;28;20371;-69
2022/04/28 13:21:12;;;;;;;4.95;2.10;;;20.30;75.70;;;;;;5095062;28;20181;-67
2022/04/28 13:23:42;;;;;;;9.48;3.45;;;20.50;75.80;;;;;;5076217;28;20039;-69
2022/04/28 13:26:09;;;;;;;9.20;2.15;;;20.60;75.90;;;;;;5094111;28;20401;-70
2022/04/28 13:28:36;;;;;;;9.00;2.30;;;20.20;72.00;;;;;;5101891;28;20039;-68
2022/04/28 13:31:03;;;;;;;7.03;2.50;;;20.50;74.80;;;;;;5091658;28;20060;-62
2022/04/28 13:33:28;;;;;;;5.93;1.80;;;20.30;76.20;;;;;;5082197;28;20032;-62
2022/04/28 13:35:57;;;;;;;6.63;2.63;;;20.20;75.70;;;;;;5086421;28;20036;-64
2022/04/28 13:38:23;;;;;;;10.90;2.33;;;20.50;76.00;;;;;;5121179;27;20046;-68
2022/04/28 13:40:49;;;;;;;8.77;2.33;;;20.30;75.90;;;;;;5099129;28;20060;-70
2022/04/28 13:43:15;;;;;;;8.15;2.05;;;20.50;76.10;;;;;;5095327;28;20050;-70
2022/04/28 13:45:41;;;;;;;11.65;2.85;;;20.60;76.60;;;;;;5088459;27;20449;-70
2022/04/28 13:48:09;;;;;;;5.93;1.83;;;;;;;;;;5115954;27;20051;-69
2022/04/28 13:50:36;;;;;;;7.47;1.90;;;20.20;76.20;;;;;;5121358;27;20054;-69
2022/04/28 13:53:03;;;;;;;8.23;2.20;;;20.40;76.40;;;;;;5115353;27;20047;-69
2022/04/28 13:55:29;;;;;;;7.00;2.00;;;20.40;76.60;;;;;;5099259;28;20083;-69